Time;durP1;ratioP1;P1;durP2;ratioP2;P2;SDS_P1;SDS_P2;PMS_P1;PMS_P2;Temp;Humidity;BMP_temperature;BMP_pressure;BME280_temperature;BME280_humidity;BME280_pressure;Samples;Min_cycle;Max_cycle;Signal;HPM_P1;HPM_P2
2023/05/19 00:00:16;;;;;;;10.77;3.17;;;11.50;74.70;;;;;;4996068;28;20545;-74
2023/05/19 00:02:42;;;;;;;9.90;3.80;;;11.40;74.60;;;;;;4996076;28;20475;-73
2023/05/19 00:05:09;;;;;;;12.80;3.60;;;11.40;74.50;;;;;;4995926;28;20030;-73
2023/05/19 00:07:37;;;;;;;7.70;3.30;;;11.40;74.60;;;;;;4995809;28;20467;-72
2023/05/19 00:10:04;;;;;;;11.27;3.47;;;11.20;74.40;;;;;;4995352;28;20025;-72
2023/05/19 00:12:30;;;;;;;8.87;3.17;;;11.30;74.80;;;;;;4995785;28;20133;-72
2023/05/19 00:14:56;;;;;;;9.33;3.63;;;11.20;75.30;;;;;;4995748;28;20025;-71
2023/05/19 00:17:22;;;;;;;9.43;3.70;;;11.20;75.50;;;;;;4995719;28;20094;-72
2023/05/19 00:19:48;;;;;;;8.93;2.80;;;11.20;75.60;;;;;;4995626;28;20015;-73
2023/05/19 00:22:14;;;;;;;7.73;3.07;;;11.20;75.50;;;;;;4995676;28;20023;-72
2023/05/19 00:24:40;;;;;;;9.43;3.50;;;11.10;75.30;;;;;;4994467;28;20030;-73
2023/05/19 00:27:06;;;;;;;9.70;3.50;;;11.10;75.60;;;;;;4995425;28;20053;-73
2023/05/19 00:29:31;;;;;;;9.70;3.70;;;11.10;76.00;;;;;;4995510;28;20034;-74
2023/05/19 00:31:57;;;;;;;7.47;3.50;;;11.10;76.40;;;;;;4995447;28;20172;-72
2023/05/19 00:34:23;;;;;;;8.90;3.60;;;11.10;76.70;;;;;;4995355;28;20034;-73
2023/05/19 00:36:49;;;;;;;8.23;3.63;;;11.00;76.90;;;;;;4995346;28;20441;-73
2023/05/19 00:39:15;;;;;;;8.13;3.67;;;11.00;77.20;;;;;;4995327;28;20479;-73
2023/05/19 00:41:40;;;;;;;12.40;4.20;;;11.00;77.80;;;;;;4995233;28;20043;-74
2023/05/19 00:44:06;;;;;;;9.07;3.43;;;11.00;78.20;;;;;;4995263;28;20382;-73
2023/05/19 00:46:32;;;;;;;7.47;3.50;;;10.90;78.70;;;;;;4995215;28;20080;-73
2023/05/19 00:48:58;;;;;;;12.33;3.93;;;10.90;78.70;;;;;;4995412;28;20418;-73
2023/05/19 00:51:26;;;;;;;15.53;4.10;;;10.90;79.00;;;;;;4995027;28;20034;-73
2023/05/19 00:53:52;;;;;;;8.20;3.87;;;10.90;79.60;;;;;;4994900;28;20063;-74
2023/05/19 00:56:20;;;;;;;11.17;4.23;;;10.90;79.60;;;;;;4994811;28;20033;-74
2023/05/19 00:58:46;;;;;;;12.00;4.57;;;10.80;79.60;;;;;;4993879;28;20065;-73
2023/05/19 01:01:13;;;;;;;12.53;4.60;;;10.80;80.20;;;;;;4993566;28;20042;-75
2023/05/19 01:03:39;;;;;;;8.47;4.10;;;10.80;80.30;;;;;;4993246;28;20030;-74
2023/05/19 01:06:05;;;;;;;8.83;3.87;;;10.80;80.20;;;;;;4985918;28;20094;-74
2023/05/19 01:08:32;;;;;;;12.83;4.63;;;10.70;80.40;;;;;;4975176;28;20023;-73
2023/05/19 01:10:58;;;;;;;14.17;3.90;;;10.80;80.70;;;;;;4974125;28;20113;-74
2023/05/19 01:13:25;;;;;;;10.97;4.00;;;10.70;81.60;;;;;;4974191;28;20113;-74
2023/05/19 01:16:07;;;;;;;9.20;4.03;;;10.70;80.80;;;;;;4992316;28;20034;-74
2023/05/19 01:18:39;;;;;;;12.73;4.57;;;10.70;81.30;;;;;;4994502;28;20023;-73
2023/05/19 01:21:35;;;;;;;8.43;3.73;;;10.70;81.60;;;;;;4994136;28;20053;-74
2023/05/19 01:24:38;;;;;;;8.93;3.67;;;10.60;81.70;;;;;;4994401;28;20097;-73
2023/05/19 01:27:18;;;;;;;10.33;3.97;;;10.60;82.00;;;;;;4994590;28;20069;-73
2023/05/19 01:30:22;;;;;;;15.10;4.43;;;10.60;82.40;;;;;;4992672;28;20125;-73
2023/05/19 01:32:48;;;;;;;10.90;4.70;;;10.50;82.30;;;;;;4993316;28;20113;-73
2023/05/19 01:35:15;;;;;;;7.30;3.20;;;10.50;82.00;;;;;;4990245;28;20483;-74
2023/05/19 01:37:42;;;;;;;8.87;3.73;;;10.50;82.20;;;;;;4974875;28;20053;-73
2023/05/19 01:40:08;;;;;;;10.43;4.10;;;10.50;82.10;;;;;;4974112;28;20102;-73
2023/05/19 01:42:37;;;;;;;9.43;3.70;;;10.40;82.00;;;;;;4974832;28;20026;-74
2023/05/19 01:45:05;;;;;;;9.20;3.80;;;10.50;82.60;;;;;;4974656;28;20031;-73
2023/05/19 01:47:34;;;;;;;9.83;3.83;;;10.40;82.40;;;;;;4974758;28;20126;-73
2023/05/19 01:49:59;;;;;;;13.90;3.97;;;10.40;82.60;;;;;;4973345;28;20057;-73
2023/05/19 01:52:25;;;;;;;11.57;4.00;;;10.40;82.70;;;;;;4974499;28;20031;-74
2023/05/19 01:54:51;;;;;;;11.53;3.83;;;10.30;82.40;;;;;;4974582;28;20101;-74
2023/05/19 01:57:31;;;;;;;13.20;4.63;;;10.30;83.00;;;;;;4973258;28;20050;-74
2023/05/19 02:00:10;;;;;;;9.13;3.50;;;10.40;83.50;;;;;;4974529;28;20081;-73
2023/05/19 02:02:54;;;;;;;11.40;3.83;;;10.30;83.30;;;;;;4974663;28;20023;-74
2023/05/19 02:05:30;;;;;;;11.45;4.25;;;10.20;83.70;;;;;;4974504;28;20057;-74
2023/05/19 02:08:20;;;;;;;11.23;4.33;;;10.20;84.10;;;;;;4974465;28;20023;-73
2023/05/19 02:10:54;;;;;;;10.90;4.27;;;10.20;84.10;;;;;;4973141;28;20094;-75
2023/05/19 02:13:23;;;;;;;10.63;4.82;;;10.20;84.90;;;;;;4974361;28;20026;-73
2023/05/19 02:15:51;;;;;;;8.60;4.30;;;10.20;85.20;;;;;;4974337;28;20089;-74
2023/05/19 02:18:19;;;;;;;12.27;4.27;;;10.20;85.50;;;;;;4973088;28;20380;-74
2023/05/19 02:20:44;;;;;;;13.77;5.07;;;10.10;85.60;;;;;;4973206;28;20030;-74
2023/05/19 02:23:10;;;;;;;8.40;4.53;;;10.10;86.40;;;;;;4974251;28;20118;-74
2023/05/19 02:25:35;;;;;;;10.87;4.27;;;10.10;86.60;;;;;;4974579;28;20428;-73
2023/05/19 02:28:01;;;;;;;10.57;4.73;;;10.00;86.90;;;;;;4956894;28;20098;-74
2023/05/19 02:30:27;;;;;;;12.70;5.33;;;10.00;87.40;;;;;;4974337;28;20030;-74
2023/05/19 02:32:53;;;;;;;8.80;4.87;;;10.00;87.30;;;;;;4973113;28;20034;-74
2023/05/19 02:35:19;;;;;;;11.57;4.57;;;9.90;87.10;;;;;;4978229;28;20043;-74
2023/05/19 02:37:45;;;;;;;13.13;4.37;;;9.90;87.10;;;;;;4978111;28;20030;-74
2023/05/19 02:40:11;;;;;;;13.03;4.60;;;9.90;87.30;;;;;;4977935;28;20051;-74
2023/05/19 02:42:36;;;;;;;8.93;4.87;;;9.90;87.60;;;;;;4978036;28;20079;-73
2023/05/19 02:45:02;;;;;;;8.17;4.57;;;9.90;87.70;;;;;;4977924;28;20499;-73
2023/05/19 02:47:28;;;;;;;12.30;5.33;;;9.90;87.90;;;;;;4977815;28;20026;-74
2023/05/19 02:49:53;;;;;;;12.13;4.97;;;9.80;88.30;;;;;;4977922;28;20018;-73
2023/05/19 02:52:19;;;;;;;11.07;4.90;;;9.90;88.00;;;;;;4976813;28;20447;-74
2023/05/19 02:54:45;;;;;;;11.07;4.40;;;9.80;87.90;;;;;;4977702;28;20027;-74
2023/05/19 02:57:10;;;;;;;14.23;5.70;;;9.80;87.90;;;;;;4977498;28;20027;-74
2023/05/19 02:59:36;;;;;;;12.13;5.60;;;9.80;88.30;;;;;;4977638;28;20027;-74
2023/05/19 03:02:02;;;;;;;9.40;4.63;;;9.80;88.80;;;;;;4960149;28;20451;-74
2023/05/19 03:04:28;;;;;;;10.27;5.20;;;9.80;89.10;;;;;;4977541;28;20089;-74
2023/05/19 03:06:54;;;;;;;11.00;5.23;;;9.70;89.20;;;;;;4977640;28;20034;-74
2023/05/19 03:09:20;;;;;;;13.17;6.07;;;9.70;89.10;;;;;;4975978;28;20019;-73
2023/05/19 03:11:45;;;;;;;12.87;5.53;;;9.70;89.50;;;;;;4983725;28;20057;-73
2023/05/19 03:14:12;;;;;;;14.97;6.40;;;9.70;89.80;;;;;;4997420;28;20057;-74
2023/05/19 03:16:39;;;;;;;11.40;6.00;;;9.60;89.90;;;;;;4996818;28;20035;-74
2023/05/19 03:19:05;;;;;;;12.10;5.13;;;9.50;90.10;;;;;;4997118;28;20049;-73
2023/05/19 03:21:33;;;;;;;16.00;6.00;;;9.60;90.20;;;;;;4995522;28;20022;-74
2023/05/19 03:23:59;;;;;;;9.23;4.83;;;9.60;90.40;;;;;;4997347;28;20022;-74
2023/05/19 03:26:25;;;;;;;14.70;5.87;;;9.60;90.50;;;;;;4996903;28;20038;-74
2023/05/19 03:28:50;;;;;;;12.63;5.30;;;9.50;90.40;;;;;;4995726;28;20023;-74
2023/05/19 03:31:16;;;;;;;14.03;5.57;;;9.60;90.50;;;;;;4992187;28;20045;-74
2023/05/19 03:33:51;;;;;;;11.90;5.73;;;9.60;90.60;;;;;;4996371;28;20034;-76
2023/05/19 03:36:16;;;;;;;10.93;6.10;;;9.50;90.80;;;;;;4996287;28;20026;-74
2023/05/19 03:38:42;;;;;;;11.27;6.07;;;9.50;90.70;;;;;;4996469;28;20498;-82
2023/05/19 03:41:07;;;;;;;14.13;5.97;;;9.50;91.10;;;;;;4996624;28;20376;-82
2023/05/19 03:43:33;;;;;;;12.80;6.23;;;9.50;90.90;;;;;;4996535;28;20026;-81
2023/05/19 03:45:59;;;;;;;16.63;6.03;;;9.50;91.10;;;;;;4995643;28;20027;-73
2023/05/19 03:48:25;;;;;;;12.63;5.63;;;9.40;91.00;;;;;;4996319;28;20031;-74
2023/05/19 03:50:51;;;;;;;17.47;6.17;;;9.50;91.30;;;;;;4996677;28;20430;-74
2023/05/19 03:53:16;;;;;;;11.87;6.03;;;9.40;91.20;;;;;;4994877;28;20033;-74
2023/05/19 03:55:43;;;;;;;12.03;5.57;;;9.40;91.30;;;;;;4996077;28;20077;-73
2023/05/19 03:58:09;;;;;;;15.13;6.20;;;9.40;91.60;;;;;;4988867;28;20065;-75
2023/05/19 04:00:35;;;;;;;12.73;5.87;;;9.40;91.70;;;;;;4993968;28;20038;-81
2023/05/19 04:03:00;;;;;;;12.93;6.17;;;9.50;91.90;;;;;;4978626;28;20039;-81
2023/05/19 04:05:26;;;;;;;11.83;5.40;;;9.40;91.60;;;;;;4975351;28;20027;-81
2023/05/19 04:07:51;;;;;;;12.93;5.50;;;9.40;91.60;;;;;;4975169;28;20034;-81
2023/05/19 04:10:18;;;;;;;12.10;5.37;;;9.40;91.60;;;;;;4976450;28;20054;-80
2023/05/19 04:12:44;;;;;;;9.23;4.67;;;9.40;91.60;;;;;;4976435;28;20034;-80
2023/05/19 04:15:10;;;;;;;10.93;4.93;;;9.40;91.80;;;;;;4991313;28;20034;-80
2023/05/19 04:17:36;;;;;;;11.73;5.83;;;9.40;91.90;;;;;;4976282;28;20101;-80
2023/05/19 04:20:04;;;;;;;14.33;5.93;;;9.40;92.10;;;;;;4976194;28;20035;-82
2023/05/19 04:22:30;;;;;;;16.00;5.77;;;9.50;92.10;;;;;;4974880;28;20161;-74
2023/05/19 04:24:55;;;;;;;12.93;5.10;;;9.50;92.10;;;;;;4976174;28;20062;-74
2023/05/19 04:27:21;;;;;;;13.83;5.63;;;9.50;92.30;;;;;;4991087;28;20033;-74
2023/05/19 04:29:48;;;;;;;12.17;6.20;;;9.50;92.20;;;;;;4991856;28;20035;-74
2023/05/19 04:32:16;;;;;;;11.70;5.50;;;9.50;92.30;;;;;;4995361;28;20037;-74
2023/05/19 04:34:44;;;;;;;9.27;4.87;;;9.50;92.30;;;;;;4980242;28;20090;-73
2023/05/19 04:37:15;;;;;;;12.07;5.40;;;9.50;92.40;;;;;;4975837;28;20127;-74
2023/05/19 04:39:45;;;;;;;12.03;6.30;;;9.60;92.60;;;;;;4978532;28;20029;-73
2023/05/19 04:42:10;;;;;;;13.77;6.03;;;9.60;92.90;;;;;;4992830;28;20073;-73
2023/05/19 04:44:38;;;;;;;12.27;5.53;;;9.70;92.70;;;;;;4988460;28;20046;-74
2023/05/19 04:47:09;;;;;;;14.70;6.63;;;9.70;92.60;;;;;;4984967;28;20426;-74
2023/05/19 04:49:37;;;;;;;12.00;5.27;;;9.70;93.00;;;;;;4991256;28;20025;-73
2023/05/19 04:52:11;;;;;;;14.80;6.03;;;9.80;93.00;;;;;;4990491;28;20023;-73
2023/05/19 04:54:38;;;;;;;12.95;5.60;;;9.80;92.80;;;;;;4994699;28;20037;-74
2023/05/19 04:57:04;;;;;;;13.23;5.97;;;9.80;92.90;;;;;;4993728;28;20103;-73
2023/05/19 04:59:30;;;;;;;10.63;5.13;;;9.80;92.80;;;;;;5000991;28;20033;-73
2023/05/19 05:01:56;;;;;;;13.93;4.93;;;9.80;92.80;;;;;;4991874;28;20144;-75
2023/05/19 05:04:22;;;;;;;14.50;6.07;;;9.90;92.90;;;;;;4994369;28;20463;-74
2023/05/19 05:06:49;;;;;;;13.07;5.90;;;9.90;92.90;;;;;;4994569;28;20097;-74
2023/05/19 05:09:15;;;;;;;13.40;4.83;;;9.90;92.90;;;;;;4994464;28;20033;-73
2023/05/19 05:11:41;;;;;;;13.53;5.40;;;10.00;92.80;;;;;;4994550;28;20061;-77
2023/05/19 05:14:07;;;;;;;13.40;4.90;;;10.00;92.70;;;;;;4994634;28;20034;-73
2023/05/19 05:16:33;;;;;;;10.20;5.30;;;10.00;92.70;;;;;;4994502;28;20049;-74
2023/05/19 05:19:00;;;;;;;16.30;5.33;;;10.00;92.70;;;;;;4983679;28;20049;-73
2023/05/19 05:21:27;;;;;;;10.37;4.47;;;10.10;92.80;;;;;;4983518;28;20034;-73
2023/05/19 05:23:53;;;;;;;12.27;4.43;;;10.10;92.80;;;;;;4990412;28;20514;-74
2023/05/19 05:26:22;;;;;;;11.20;4.67;;;10.10;92.90;;;;;;5001356;28;20030;-73
2023/05/19 05:28:49;;;;;;;9.97;5.00;;;10.10;92.90;;;;;;4994241;28;20046;-73
2023/05/19 05:31:15;;;;;;;10.77;4.27;;;10.20;93.00;;;;;;4973870;28;20045;-73
2023/05/19 05:33:41;;;;;;;11.57;4.40;;;10.30;93.00;;;;;;4973060;28;20034;-74
2023/05/19 05:36:07;;;;;;;8.60;4.67;;;10.30;93.00;;;;;;4972523;28;20436;-73
2023/05/19 05:38:32;;;;;;;11.23;4.70;;;10.40;93.10;;;;;;4974752;28;20065;-74
2023/05/19 05:40:59;;;;;;;9.67;3.77;;;10.40;93.00;;;;;;4974968;28;20121;-74
2023/05/19 05:43:24;;;;;;;9.63;4.30;;;10.40;93.00;;;;;;4974764;28;20023;-74
2023/05/19 05:45:50;;;;;;;13.43;4.70;;;10.50;93.00;;;;;;4974734;28;20053;-73
2023/05/19 05:48:16;;;;;;;11.53;3.90;;;10.60;92.90;;;;;;4974678;28;20038;-74
2023/05/19 05:50:43;;;;;;;13.20;4.57;;;10.60;92.90;;;;;;4974694;28;20121;-73
2023/05/19 05:53:11;;;;;;;9.87;4.20;;;10.60;92.80;;;;;;4973535;28;20497;-74
2023/05/19 05:55:37;;;;;;;10.73;3.57;;;10.70;92.80;;;;;;4974779;28;20506;-73
2023/05/19 05:58:02;;;;;;;9.70;4.50;;;10.80;92.70;;;;;;4988098;28;20038;-74
2023/05/19 06:00:28;;;;;;;12.30;4.10;;;10.90;92.60;;;;;;4987843;28;20542;-73
2023/05/19 06:02:54;;;;;;;9.77;4.03;;;10.90;92.60;;;;;;4973494;28;20110;-73
2023/05/19 06:05:19;;;;;;;8.33;3.77;;;11.00;92.50;;;;;;4974402;28;20396;-73
2023/05/19 06:07:45;;;;;;;7.50;3.67;;;11.00;92.30;;;;;;4972982;28;20039;-73
2023/05/19 06:10:11;;;;;;;10.18;3.33;;;11.10;92.20;;;;;;4973327;28;20027;-72
2023/05/19 06:12:39;;;;;;;9.90;3.20;;;11.10;92.10;;;;;;4974336;28;20094;-73
2023/05/19 06:15:06;;;;;;;9.57;3.70;;;11.20;92.00;;;;;;4974323;28;20027;-72
2023/05/19 06:17:34;;;;;;;11.70;3.70;;;11.20;91.90;;;;;;4974353;28;20033;-73
2023/05/19 06:20:00;;;;;;;8.43;3.35;;;11.40;91.80;;;;;;4989043;28;20387;-73
2023/05/19 06:22:27;;;;;;;7.30;3.05;;;11.30;91.60;;;;;;4974174;28;20027;-73
2023/05/19 06:24:53;;;;;;;10.00;3.13;;;11.50;91.50;;;;;;4974286;28;20473;-73
2023/05/19 06:27:18;;;;;;;8.38;3.03;;;11.60;91.30;;;;;;4974188;28;20106;-73
2023/05/19 06:29:44;;;;;;;8.50;2.42;;;11.60;91.10;;;;;;4974273;28;20103;-73
2023/05/19 06:32:10;;;;;;;9.02;3.28;;;11.70;91.00;;;;;;4974105;28;20471;-73
2023/05/19 06:34:37;;;;;;;7.45;2.50;;;11.80;90.80;;;;;;4974169;28;20285;-73
2023/05/19 06:37:03;;;;;;;10.45;2.35;;;11.80;90.70;;;;;;4974224;28;20030;-73
2023/05/19 06:39:28;;;;;;;6.53;2.28;;;11.90;90.50;;;;;;4974425;28;20042;-73
2023/05/19 06:41:54;;;;;;;7.05;2.30;;;12.00;90.40;;;;;;4973823;28;20443;-73
2023/05/19 06:44:21;;;;;;;10.38;2.58;;;12.00;90.10;;;;;;4973926;28;20093;-73
2023/05/19 06:46:46;;;;;;;9.10;2.42;;;12.10;90.00;;;;;;4974014;28;20027;-74
2023/05/19 06:49:12;;;;;;;5.13;1.55;;;12.20;89.60;;;;;;4973990;28;20472;-73
2023/05/19 06:51:38;;;;;;;8.85;2.08;;;12.30;89.00;;;;;;4974059;28;20038;-74
2023/05/19 06:54:04;;;;;;;10.75;3.53;;;12.40;88.50;;;;;;4974216;28;20496;-74
2023/05/19 06:56:30;;;;;;;12.90;2.88;;;12.40;87.90;;;;;;4973845;28;20502;-73
2023/05/19 06:58:55;;;;;;;6.65;1.80;;;12.50;87.40;;;;;;4988884;28;20033;-73
2023/05/19 07:01:21;;;;;;;5.53;1.83;;;12.60;86.80;;;;;;4973783;28;20035;-73
2023/05/19 07:03:47;;;;;;;7.93;1.77;;;12.60;86.30;;;;;;4973875;28;20026;-74
2023/05/19 07:06:12;;;;;;;7.22;2.03;;;12.70;85.90;;;;;;4973801;28;20109;-73
2023/05/19 07:08:38;;;;;;;5.60;1.98;;;12.80;85.50;;;;;;4973727;28;20035;-73
2023/05/19 07:11:04;;;;;;;7.72;2.13;;;12.80;85.10;;;;;;4973581;28;20058;-75
2023/05/19 07:13:31;;;;;;;6.93;1.48;;;12.90;84.60;;;;;;4972738;28;20375;-75
2023/05/19 07:15:57;;;;;;;5.10;1.55;;;13.00;84.00;;;;;;4973758;28;20026;-75
2023/05/19 07:18:23;;;;;;;4.97;1.60;;;13.10;83.50;;;;;;4972435;28;20439;-74
2023/05/19 07:20:50;;;;;;;5.43;1.65;;;13.20;83.20;;;;;;4985048;28;20042;-74
2023/05/19 07:23:16;;;;;;;6.13;1.90;;;13.20;82.80;;;;;;4997237;28;20467;-75
2023/05/19 07:25:41;;;;;;;8.68;1.83;;;13.30;82.20;;;;;;4996715;28;20069;-74
2023/05/19 07:28:07;;;;;;;8.48;1.55;;;13.40;81.80;;;;;;4997063;28;20041;-75
2023/05/19 07:30:33;;;;;;;9.15;1.90;;;13.50;81.40;;;;;;4992510;28;20034;-74
2023/05/19 07:32:58;;;;;;;6.88;1.55;;;13.50;81.00;;;;;;4987645;28;20042;-75
2023/05/19 07:35:25;;;;;;;4.07;1.27;;;13.60;80.80;;;;;;4996334;28;20395;-74
2023/05/19 07:37:51;;;;;;;4.70;1.33;;;13.70;80.40;;;;;;4988375;28;20162;-74
2023/05/19 07:40:17;;;;;;;8.15;1.23;;;13.80;80.20;;;;;;4984755;28;20110;-74
2023/05/19 07:42:43;;;;;;;5.15;1.40;;;13.80;79.70;;;;;;4976995;28;20038;-75
2023/05/19 07:45:09;;;;;;;7.25;1.98;;;13.90;79.40;;;;;;4976077;28;20043;-74
2023/05/19 07:47:35;;;;;;;7.25;1.50;;;13.90;78.90;;;;;;4977309;28;20023;-74
2023/05/19 07:50:01;;;;;;;9.05;2.00;;;14.00;78.50;;;;;;4976078;28;20081;-74
2023/05/19 07:52:27;;;;;;;5.95;1.77;;;14.10;78.30;;;;;;4991450;28;20450;-74
2023/05/19 07:54:52;;;;;;;6.97;1.90;;;14.10;78.00;;;;;;4995191;28;20065;-74
2023/05/19 07:57:18;;;;;;;5.32;1.42;;;14.20;77.60;;;;;;4994218;28;20031;-74
2023/05/19 07:59:44;;;;;;;7.43;1.70;;;14.20;77.30;;;;;;4994955;28;20030;-75
2023/05/19 08:02:10;;;;;;;6.15;1.45;;;14.30;77.00;;;;;;4995984;28;20490;-75
2023/05/19 08:04:35;;;;;;;6.30;1.40;;;14.40;76.90;;;;;;4996087;28;20101;-74
2023/05/19 08:07:01;;;;;;;6.00;1.50;;;14.50;76.70;;;;;;4995883;28;20533;-75
2023/05/19 08:09:27;;;;;;;5.00;1.30;;;14.50;76.30;;;;;;4995726;28;20030;-75
2023/05/19 08:11:53;;;;;;;9.27;1.70;;;14.60;76.10;;;;;;4995690;28;20050;-74
2023/05/19 08:14:21;;;;;;;4.10;1.27;;;14.70;75.80;;;;;;4994595;28;20456;-76
2023/05/19 08:16:47;;;;;;;3.63;1.05;;;14.70;75.40;;;;;;4995729;28;20030;-75
2023/05/19 08:19:13;;;;;;;5.72;1.48;;;14.80;75.00;;;;;;4994476;28;20037;-74
2023/05/19 08:21:41;;;;;;;4.10;1.10;;;14.80;74.60;;;;;;4995519;28;20399;-75
2023/05/19 08:24:07;;;;;;;8.88;1.25;;;14.90;74.30;;;;;;5010642;28;20062;-76
2023/05/19 08:26:33;;;;;;;5.18;1.02;;;15.00;73.90;;;;;;4995449;28;20386;-75
2023/05/19 08:28:58;;;;;;;7.20;1.27;;;15.00;73.60;;;;;;4995782;28;20038;-75
2023/05/19 08:31:24;;;;;;;4.55;0.80;;;15.10;73.40;;;;;;4995361;28;20364;-74
2023/05/19 08:33:50;;;;;;;7.10;1.10;;;15.20;73.20;;;;;;4995525;28;20034;-74
2023/05/19 08:36:15;;;;;;;3.30;0.80;;;15.20;72.80;;;;;;4995535;28;20030;-74
2023/05/19 08:38:41;;;;;;;5.28;1.05;;;15.30;72.40;;;;;;4995408;28;20482;-75
2023/05/19 08:41:07;;;;;;;4.53;0.80;;;15.30;72.00;;;;;;4995308;28;20173;-74
2023/05/19 08:43:33;;;;;;;5.43;1.25;;;15.40;71.70;;;;;;4995126;28;20026;-75
2023/05/19 08:45:59;;;;;;;4.82;1.13;;;15.50;71.50;;;;;;4995228;28;20450;-74
2023/05/19 08:48:29;;;;;;;4.95;0.80;;;15.50;71.20;;;;;;4995157;28;20530;-75
2023/05/19 08:51:16;;;;;;;7.65;1.25;;;15.60;70.80;;;;;;4995291;28;20058;-75
2023/05/19 08:53:49;;;;;;;4.30;0.90;;;15.70;70.50;;;;;;4993790;28;20391;-75
2023/05/19 08:56:20;;;;;;;4.88;1.05;;;15.80;70.40;;;;;;4994880;28;20034;-74
2023/05/19 08:58:48;;;;;;;7.35;1.05;;;15.90;69.90;;;;;;4994945;28;20475;-74
2023/05/19 09:01:15;;;;;;;5.15;0.90;;;15.90;69.50;;;;;;4994772;28;20383;-74
2023/05/19 09:03:48;;;;;;;3.78;0.80;;;16.10;69.20;;;;;;4994825;28;20027;-75
2023/05/19 09:06:14;;;;;;;4.47;0.70;;;16.20;68.70;;;;;;4994870;28;20023;-75
2023/05/19 09:08:41;;;;;;;3.67;0.70;;;16.20;68.00;;;;;;4994952;28;20034;-74
2023/05/19 09:11:07;;;;;;;4.18;0.60;;;16.30;67.40;;;;;;4994646;28;20050;-75
2023/05/19 09:13:33;;;;;;;3.50;0.60;;;16.40;66.90;;;;;;4994709;28;20030;-75
2023/05/19 09:15:59;;;;;;;2.80;0.60;;;16.50;66.40;;;;;;4993363;28;20034;-74
2023/05/19 09:18:26;;;;;;;6.10;0.88;;;16.60;65.90;;;;;;4994605;28;20062;-74
2023/05/19 09:20:59;;;;;;;7.45;0.82;;;16.70;65.30;;;;;;4993221;28;20040;-74
2023/05/19 09:23:30;;;;;;;4.13;0.77;;;16.70;64.60;;;;;;4994577;28;20527;-74
2023/05/19 09:25:56;;;;;;;6.18;0.70;;;16.80;64.20;;;;;;4994502;28;20490;-75
2023/05/19 09:28:24;;;;;;;3.83;0.75;;;16.90;63.80;;;;;;4994334;28;20027;-74
2023/05/19 09:31:08;;;;;;;4.45;0.93;;;17.00;63.20;;;;;;4994432;28;20121;-75
2023/05/19 09:33:35;;;;;;;4.50;0.80;;;17.10;62.80;;;;;;4994345;28;20030;-74
2023/05/19 09:36:04;;;;;;;7.90;0.80;;;17.20;62.60;;;;;;4992984;28;20031;-75
2023/05/19 09:38:30;;;;;;;5.97;0.95;;;17.30;62.30;;;;;;4994170;28;20068;-75
2023/05/19 09:40:57;;;;;;;4.97;0.98;;;17.40;62.00;;;;;;4994118;28;20058;-75
2023/05/19 09:43:23;;;;;;;6.07;0.80;;;17.50;61.50;;;;;;4993673;28;20030;-75
2023/05/19 09:46:00;;;;;;;7.15;0.98;;;17.60;61.00;;;;;;4994347;28;20033;-73
2023/05/19 09:48:26;;;;;;;4.15;0.80;;;17.70;60.00;;;;;;4992855;28;20099;-75
2023/05/19 09:50:53;;;;;;;4.65;0.70;;;17.70;59.60;;;;;;4993151;28;20391;-74
2023/05/19 09:53:20;;;;;;;4.90;0.93;;;17.80;59.60;;;;;;4992763;28;20471;-75
2023/05/19 09:55:47;;;;;;;5.25;0.85;;;17.80;59.50;;;;;;4993934;28;20058;-75
2023/05/19 09:58:17;;;;;;;5.97;0.88;;;17.90;59.40;;;;;;4993861;28;20034;-75
2023/05/19 10:00:44;;;;;;;4.00;0.80;;;18.00;58.90;;;;;;4993974;28;20030;-76
2023/05/19 10:03:11;;;;;;;4.78;1.00;;;18.10;58.80;;;;;;4992646;28;20083;-75
2023/05/19 10:05:37;;;;;;;4.20;0.80;;;18.10;58.60;;;;;;4992506;28;20029;-75
2023/05/19 10:08:06;;;;;;;4.10;0.93;;;18.20;58.30;;;;;;4992886;28;20102;-78
2023/05/19 10:10:32;;;;;;;5.70;0.95;;;18.30;58.10;;;;;;4996029;28;20057;-77
2023/05/19 10:12:59;;;;;;;4.65;0.80;;;18.40;57.90;;;;;;4974276;28;20074;-77
2023/05/19 10:15:26;;;;;;;4.20;0.60;;;18.40;57.60;;;;;;4974193;28;20110;-77
2023/05/19 10:17:51;;;;;;;6.50;1.35;;;18.50;57.50;;;;;;5000035;28;20027;-79
2023/05/19 10:20:17;;;;;;;4.45;0.90;;;18.50;58.00;;;;;;4982740;28;20122;-77
2023/05/19 10:22:44;;;;;;;3.70;0.70;;;18.70;57.30;;;;;;4980395;28;20023;-79
2023/05/19 10:25:13;;;;;;;6.38;1.02;;;18.80;57.00;;;;;;4980955;28;20121;-78
2023/05/19 10:28:10;;;;;;;4.45;0.80;;;18.80;56.80;;;;;;4974293;28;20023;-78
2023/05/19 10:30:41;;;;;;;5.20;0.80;;;19.00;56.50;;;;;;4974240;28;20039;-79
2023/05/19 10:33:12;;;;;;;2.65;0.82;;;19.10;56.40;;;;;;4974156;28;20479;-77
2023/05/19 10:35:41;;;;;;;4.45;1.00;;;19.30;56.00;;;;;;4972934;28;20019;-77
2023/05/19 10:38:32;;;;;;;4.53;0.60;;;19.40;55.70;;;;;;4974069;28;20435;-76
2023/05/19 10:40:58;;;;;;;5.07;0.90;;;19.60;55.40;;;;;;4974586;28;20460;-78
2023/05/19 10:43:38;;;;;;;6.78;0.88;;;19.70;55.40;;;;;;4974128;28;20077;-78
2023/05/19 10:46:05;;;;;;;3.20;0.68;;;19.90;55.20;;;;;;4981593;28;20050;-78
2023/05/19 10:48:37;;;;;;;4.20;0.90;;;20.00;54.90;;;;;;5007460;28;20548;-75
2023/05/19 10:51:03;;;;;;;6.88;1.17;;;20.20;54.40;;;;;;4983457;28;20069;-75
2023/05/19 10:53:33;;;;;;;4.50;0.70;;;20.40;54.10;;;;;;4987121;28;20471;-76
2023/05/19 10:56:05;;;;;;;3.03;0.85;;;20.60;53.60;;;;;;4992883;28;20029;-76
2023/05/19 10:58:38;;;;;;;4.35;0.75;;;20.70;53.10;;;;;;4994977;28;20026;-76
2023/05/19 11:01:31;;;;;;;3.53;0.77;;;20.90;53.00;;;;;;4994389;28;20168;-77
2023/05/19 11:03:56;;;;;;;5.85;1.25;;;20.90;52.40;;;;;;4996166;28;20014;-78
2023/05/19 11:06:35;;;;;;;8.65;1.25;;;21.20;52.50;;;;;;4995918;28;20026;-76
2023/05/19 11:09:22;;;;;;;4.13;0.70;;;21.30;51.60;;;;;;4996394;28;20352;-76
2023/05/19 11:11:54;;;;;;;2.97;0.70;;;21.60;51.40;;;;;;4996374;28;20092;-75
2023/05/19 11:14:22;;;;;;;4.18;0.73;;;21.70;51.20;;;;;;4996345;28;20507;-76
2023/05/19 11:16:50;;;;;;;3.78;0.73;;;21.90;51.50;;;;;;4996843;28;20030;-76
2023/05/19 11:19:30;;;;;;;5.53;0.70;;;22.00;50.70;;;;;;4992951;28;20031;-76
2023/05/19 11:21:57;;;;;;;6.03;0.90;;;22.20;50.20;;;;;;4977094;28;20057;-76
2023/05/19 11:24:52;;;;;;;4.93;1.02;;;22.50;50.40;;;;;;4977424;28;20093;-76
2023/05/19 11:27:31;;;;;;;5.40;0.85;;;22.70;49.70;;;;;;4977225;28;20027;-76
2023/05/19 11:30:00;;;;;;;2.92;0.50;;;22.90;49.40;;;;;;4977151;28;20027;-75
2023/05/19 11:32:32;;;;;;;2.65;0.70;;;23.10;49.10;;;;;;4977278;28;20023;-76
2023/05/19 11:34:59;;;;;;;3.90;0.88;;;23.30;48.40;;;;;;4977052;28;20118;-76
2023/05/19 11:37:25;;;;;;;2.33;0.80;;;23.50;48.10;;;;;;4977115;28;20031;-76
2023/05/19 11:39:51;;;;;;;6.25;0.80;;;23.80;47.60;;;;;;4976917;28;20023;-76
2023/05/19 11:42:17;;;;;;;3.00;0.60;;;24.00;47.40;;;;;;4976874;28;20069;-76
2023/05/19 11:44:46;;;;;;;6.18;0.90;;;24.10;47.10;;;;;;4976960;28;20502;-75
2023/05/19 11:47:13;;;;;;;4.75;0.88;;;24.40;46.70;;;;;;4977040;28;20069;-76
2023/05/19 11:49:47;;;;;;;4.13;0.75;;;24.60;46.50;;;;;;4976862;28;20055;-76
2023/05/19 11:52:13;;;;;;;3.38;0.77;;;24.80;45.90;;;;;;4975323;28;20037;-76
2023/05/19 11:54:40;;;;;;;5.07;0.70;;;25.10;45.80;;;;;;4976794;28;20030;-76
2023/05/19 11:57:09;;;;;;;4.45;1.05;;;25.20;45.50;;;;;;4984147;28;20084;-76
2023/05/19 11:59:36;;;;;;;2.60;0.73;;;25.50;45.10;;;;;;4984403;28;20038;-76
2023/05/19 12:02:17;;;;;;;4.75;0.73;;;25.60;44.50;;;;;;4986330;28;20030;-76
2023/05/19 12:04:43;;;;;;;3.50;0.70;;;25.80;43.50;;;;;;4984233;28;20101;-77
2023/05/19 12:07:22;;;;;;;3.63;0.90;;;25.90;43.70;;;;;;4989921;28;20539;-76
2023/05/19 12:09:49;;;;;;;3.65;0.73;;;26.00;43.60;;;;;;4999671;28;20019;-75
2023/05/19 12:12:16;;;;;;;3.63;0.75;;;26.20;43.70;;;;;;4985562;28;20414;-76
2023/05/19 12:14:42;;;;;;;4.28;0.88;;;26.40;43.50;;;;;;4989531;28;20014;-77
2023/05/19 12:17:16;;;;;;;4.75;1.00;;;26.60;43.20;;;;;;5011053;28;20027;-76
2023/05/19 12:19:47;;;;;;;5.35;0.90;;;26.80;42.40;;;;;;5010787;28;20031;-75
2023/05/19 12:22:14;;;;;;;7.75;1.02;;;26.90;42.30;;;;;;4995521;28;20093;-75
2023/05/19 12:24:42;;;;;;;5.25;0.98;;;27.10;42.40;;;;;;4995741;28;20061;-75
2023/05/19 12:27:18;;;;;;;6.35;1.00;;;27.30;42.40;;;;;;4994257;28;20058;-75
2023/05/19 12:29:50;;;;;;;4.75;0.93;;;27.50;42.10;;;;;;5010814;28;20060;-75
2023/05/19 12:32:17;;;;;;;5.50;1.25;;;27.80;41.70;;;;;;4995416;28;20034;-75
2023/05/19 12:34:43;;;;;;;5.95;1.13;;;28.00;41.30;;;;;;4995363;28;20384;-77
2023/05/19 12:37:10;;;;;;;4.05;1.10;;;28.20;40.90;;;;;;4995286;28;20110;-75
2023/05/19 12:39:35;;;;;;;4.22;1.10;;;28.30;40.50;;;;;;4995432;28;20041;-75
2023/05/19 12:42:08;;;;;;;5.75;0.75;;;28.40;40.50;;;;;;4995249;28;20475;-75
2023/05/19 12:44:53;;;;;;;5.00;1.02;;;28.60;39.90;;;;;;4995264;28;20105;-75
2023/05/19 12:47:19;;;;;;;5.85;1.00;;;28.70;39.10;;;;;;4995215;28;20018;-76
2023/05/19 12:50:02;;;;;;;3.33;0.70;;;28.90;39.60;;;;;;4994101;28;20049;-75